Nashport, OH (43830)

7:06 PM EDT on April 29, 2017 (GMT -0400)
DawgValley | | Change Station

Elev 745 ft 40.11 °N, 82.14 °W | Updated 1 minute ago

Partly Cloudy
Partly Cloudy
67.5 °F
Feels Like 67.5 °F
N
2.9
Wind Variable Wind from ENE
Gusts 8.0 mph

Today
High -- | Low -- °F
--% Chance of Precip.
Yesterday
High -- | Low -- °F
Precip. -- in
Pressure 30.04 in
Visibility 10.0 miles
Clouds Clear
Dew Point 61 °F
Humidity 79%
Rainfall 0.81 in
Snow Depth Not available.
6:30 AM 8:21 PM
Waxing Crescent, 17% visible
METAR KVTA 292154Z AUTO 18004KT 10SM CLR 24/16 A3005 RMK AO2 SLP172 T02440161
Pressure 30.04 in
Visibility 10.0 miles
Clouds Clear
Dew Point 61 °F
Humidity 79%
Rainfall 0.81 in
Snow Depth Not available.
6:30 AM 8:21 PM
Waxing Crescent, 17% visible
METAR KVTA 292154Z AUTO 18004KT 10SM CLR 24/16 A3005 RMK AO2 SLP172 T02440161

Get Severe Weather Alerts

Thanks for signing up!

Be on the lookout for a verification email in your inbox.

You'll start receiving the daily forecast at 8 AM.

×

10-Day Weather Forecast

Almanac

Astronomy

Apr. 29, 2017 Rise Set
Actual Time
Civil Twilight
Nautical Twilight
Astronomical Twilight
Moon
Length of Visible Light
Length of Day
Tomorrow will be .
, % of the Moon is Illuminated

Today's Extremes

State Highs State Lows

Community

WunderPhotos

WunderBlog® & News

Nearby

Air Quality

  Air Quality AQ Index Pollutant
Not available.

Snow Depth

Station Depth Elevation

Earthquake Activity

City Distance Mag. Time & Date
Minimum magnitude displayed is 2.5.

Coastal Water Temperatures

Place Temperature

Stations

Nearby Weather Stations

Station Location Temp. Windchill Dew Point Humidity Wind Precip. Elev Updated Type
                   

Watches & Warnings

There are currently no watches in effect.